createdAt,value
2018-02-03T00:00:14.093Z,100195.50
2018-02-03T00:02:49.319Z,100190.89
2018-02-03T00:05:24.216Z,100184.95
2018-02-03T00:07:59.289Z,100182.63
2018-02-03T00:10:34.545Z,100194.28
2018-02-03T00:13:09.366Z,100184.06
2018-02-03T00:15:44.390Z,100183.29
2018-02-03T00:18:19.084Z,100185.17
2018-02-03T00:20:54.292Z,100177.59
2018-02-03T00:23:29.319Z,100180.86
2018-02-03T00:26:04.156Z,100174.77
2018-02-03T00:28:42.314Z,100177.42
2018-02-03T00:31:17.377Z,100172.81
2018-02-03T00:33:52.379Z,100186.02
2018-02-03T00:36:27.355Z,100174.26
2018-02-03T00:39:02.540Z,100181.59
2018-02-03T00:41:37.531Z,100181.39
2018-02-03T00:44:12.131Z,100174.84
2018-02-03T00:46:47.390Z,100181.67
2018-02-03T00:49:22.198Z,100182.11
2018-02-03T00:51:56.682Z,100185.84
2018-02-03T00:54:31.382Z,100187.84
2018-02-03T00:57:06.254Z,100183.74
2018-02-03T00:59:41.618Z,100182.90
2018-02-03T01:02:16.203Z,100184.06
2018-02-03T01:04:52.187Z,100182.85
2018-02-03T01:07:27.478Z,100181.84
2018-02-03T01:10:02.125Z,100177.46
2018-02-03T01:12:37.287Z,100183.45
2018-02-03T01:15:12.309Z,100186.33
2018-02-03T01:17:47.212Z,100177.06
2018-02-03T01:20:22.242Z,100183.91
2018-02-03T01:22:57.423Z,100196.45
2018-02-03T01:25:32.243Z,100192.12
2018-02-03T01:28:06.698Z,100196.40
2018-02-03T01:30:41.746Z,100203.41
2018-02-03T01:33:17.279Z,100201.80
2018-02-03T01:35:52.630Z,100201.84
2018-02-03T01:38:28.075Z,100201.42
2018-02-03T01:41:03.267Z,100203.08
2018-02-03T01:43:38.311Z,100194.48
2018-02-03T01:46:13.332Z,100190.37
2018-02-03T01:48:49.200Z,100196.13
2018-02-03T01:51:24.303Z,100189.91
2018-02-03T01:53:59.327Z,100194.69
2018-02-03T01:56:34.293Z,100192.63
2018-02-03T01:59:09.319Z,100198.12
2018-02-03T02:01:44.698Z,100189.16
2018-02-03T02:04:19.488Z,100198.05
2018-02-03T02:06:54.368Z,100190.41
2018-02-03T02:09:29.563Z,100192.86
2018-02-03T02:12:04.590Z,100202.91
2018-02-03T02:14:39.562Z,100197.38
2018-02-03T02:17:14.215Z,100196.59
2018-02-03T02:19:49.520Z,100198.96
2018-02-03T02:22:24.688Z,100200.66
2018-02-03T02:24:59.927Z,100207.25
2018-02-03T02:27:34.634Z,100196.75
2018-02-03T02:30:09.558Z,100197.45
2018-02-03T02:32:44.731Z,100200.75
2018-02-03T02:35:19.815Z,100200.20
2018-02-03T02:37:54.003Z,100199.37
2018-02-03T02:40:28.459Z,100206.61
2018-02-03T02:43:03.396Z,100199.35
2018-02-03T02:45:37.900Z,100198.64
2018-02-03T02:48:12.973Z,100187.88
2018-02-03T02:50:48.128Z,100188.82
2018-02-03T02:53:23.519Z,100175.25
2018-02-03T02:55:58.662Z,100190.30
2018-02-03T02:58:33.455Z,100183.37
2018-02-03T03:01:08.443Z,100189.87
2018-02-03T03:03:44.776Z,100192.67
2018-02-03T03:06:19.654Z,100190.27
2018-02-03T03:08:54.775Z,100188.45
2018-02-03T03:11:29.708Z,100191.80
2018-02-03T03:14:04.742Z,100193.27
2018-02-03T03:16:39.574Z,100188.31
2018-02-03T03:19:14.623Z,100186.05
2018-02-03T03:21:49.879Z,100195.76
2018-02-03T03:24:25.446Z,100190.26
2018-02-03T03:27:00.290Z,100188.78
2018-02-03T03:29:35.534Z,100185.34
2018-02-03T03:32:10.627Z,100183.80
2018-02-03T03:34:45.719Z,100167.09
2018-02-03T03:37:20.612Z,100181.44
2018-02-03T03:39:55.071Z,100167.03
2018-02-03T03:42:29.836Z,100177.16
2018-02-03T03:45:04.394Z,100174.75
2018-02-03T03:47:38.896Z,100177.16
2018-02-03T03:50:13.798Z,100185.22
2018-02-03T03:52:48.797Z,100187.70
2018-02-03T03:55:23.562Z,100181.66
2018-02-03T03:57:58.828Z,100191.75
2018-02-03T04:00:33.683Z,100198.89
2018-02-03T04:03:08.496Z,100192.06
2018-02-03T04:05:43.698Z,100188.72
2018-02-03T04:08:18.460Z,100184.83
2018-02-03T04:10:53.080Z,100203.39
2018-02-03T04:13:28.607Z,100211.13
2018-02-03T04:16:03.682Z,100204.42
2018-02-03T04:18:38.635Z,100200.64
2018-02-03T04:21:13.667Z,100210.73
2018-02-03T04:23:48.983Z,100213.65
2018-02-03T04:26:23.719Z,100204.02
2018-02-03T04:28:58.603Z,100210.02
2018-02-03T04:31:34.913Z,100210.27
2018-02-03T04:34:10.515Z,100203.28
2018-02-03T04:36:45.278Z,100202.98
2018-02-03T04:39:20.655Z,100204.11
2018-02-03T04:41:55.804Z,100202.94
2018-02-03T04:44:30.684Z,100210.70
2018-02-03T04:47:05.283Z,100201.75
2018-02-03T04:49:39.968Z,100202.00
2018-02-03T04:52:14.870Z,100200.13
2018-02-03T04:54:50.072Z,100201.47
2018-02-03T04:57:25.296Z,100199.49
2018-02-03T05:00:00.005Z,100191.36
2018-02-03T05:02:35.768Z,100188.56
2018-02-03T05:05:10.795Z,100189.78
2018-02-03T05:07:45.774Z,100192.45
2018-02-03T05:10:20.969Z,100198.95
2018-02-03T05:12:56.394Z,100197.72
2018-02-03T05:15:31.286Z,100197.12
2018-02-03T05:18:06.355Z,100194.36
2018-02-03T05:20:41.604Z,100189.23
2018-02-03T05:23:16.856Z,100177.53
2018-02-03T05:25:51.355Z,100183.59
2018-02-03T05:28:26.870Z,100180.98
2018-02-03T05:31:01.556Z,100174.78
2018-02-03T05:33:36.628Z,100171.13
2018-02-03T05:36:11.848Z,100167.20
2018-02-03T05:38:46.676Z,100166.81
2018-02-03T05:41:21.965Z,100167.45
2018-02-03T05:43:56.231Z,100161.78
2018-02-03T05:46:31.248Z,100163.17
2018-02-03T05:49:06.123Z,100158.89
2018-02-03T05:51:41.435Z,100157.22
2018-02-03T05:54:16.548Z,100157.36
2018-02-03T05:56:51.991Z,100160.47
2018-02-03T05:59:26.916Z,100159.39
2018-02-03T06:02:01.857Z,100162.64
2018-02-03T06:04:37.562Z,100162.30
2018-02-03T06:07:12.461Z,100168.39
2018-02-03T06:09:47.929Z,100168.98
2018-02-03T06:12:22.972Z,100165.55
2018-02-03T06:14:57.493Z,100176.90
2018-02-03T06:17:32.496Z,100181.23
2018-02-03T06:20:07.524Z,100173.41
2018-02-03T06:22:42.400Z,100176.89
2018-02-03T06:25:17.363Z,100173.61
2018-02-03T06:27:52.233Z,100174.39
2018-02-03T06:30:27.167Z,100175.70
2018-02-03T06:33:02.292Z,100170.59
2018-02-03T06:35:37.546Z,100171.12
2018-02-03T06:38:12.773Z,100173.94
2018-02-03T06:40:47.998Z,100166.26
2018-02-03T06:43:23.164Z,100173.06
2018-02-03T06:45:58.467Z,100163.16
2018-02-03T06:48:33.200Z,100167.59
2018-02-03T06:51:08.271Z,100165.14
2018-02-03T06:53:43.190Z,100170.59
2018-02-03T06:56:18.447Z,100163.57
2018-02-03T06:58:53.313Z,100169.19
2018-02-03T07:01:28.298Z,100176.90
2018-02-03T07:04:03.456Z,100171.58
2018-02-03T07:06:38.354Z,100176.30
2018-02-03T07:09:12.928Z,100180.54
2018-02-03T07:11:48.164Z,100180.99
2018-02-03T07:14:23.487Z,100192.98
2018-02-03T07:16:58.619Z,100189.11
2018-02-03T07:19:33.258Z,100192.98
2018-02-03T07:22:08.270Z,100207.02
2018-02-03T07:24:43.205Z,100194.80
2018-02-03T07:27:18.332Z,100200.38
2018-02-03T07:29:53.303Z,100191.77
2018-02-03T07:32:28.310Z,100192.50
2018-02-03T07:35:02.926Z,100181.68
2018-02-03T07:37:38.526Z,100182.03
2018-02-03T07:40:13.258Z,100180.45
2018-02-03T07:42:48.387Z,100184.00
2018-02-03T07:45:23.410Z,100195.02
2018-02-03T07:47:58.560Z,100191.67
2018-02-03T07:50:33.360Z,100196.14
2018-02-03T07:53:08.389Z,100193.43
2018-02-03T07:55:43.613Z,100203.23
2018-02-03T07:58:18.481Z,100196.82
2018-02-03T08:00:53.596Z,100197.50
2018-02-03T08:03:28.427Z,100203.13
2018-02-03T08:06:03.606Z,100201.24
2018-02-03T08:08:38.607Z,100209.75
2018-02-03T08:11:14.205Z,100210.42
2018-02-03T08:13:49.279Z,100206.87
2018-02-03T08:16:24.432Z,100206.59
2018-02-03T08:18:59.454Z,100208.98
2018-02-03T08:21:34.516Z,100209.25
2018-02-03T08:24:09.374Z,100202.66
2018-02-03T08:26:45.757Z,100191.72
2018-02-03T08:29:21.297Z,100190.53
2018-02-03T08:31:55.918Z,100195.81
2018-02-03T08:34:31.444Z,100193.65
2018-02-03T08:37:06.580Z,100190.98
2018-02-03T08:39:41.899Z,100192.55
2018-02-03T08:42:16.264Z,100187.69
2018-02-03T08:44:51.272Z,100188.97
2018-02-03T08:47:26.614Z,100188.03
2018-02-03T08:50:02.143Z,100186.55
2018-02-03T08:52:37.867Z,100185.38
2018-02-03T08:55:12.496Z,100183.55
2018-02-03T08:57:47.595Z,100188.86
2018-02-03T09:00:22.842Z,100188.63
2018-02-03T09:02:57.643Z,100182.39
2018-02-03T09:05:32.483Z,100181.51
2018-02-03T09:08:07.475Z,100181.39
2018-02-03T09:10:42.716Z,100188.08
2018-02-03T09:13:17.875Z,100183.06
2018-02-03T09:15:53.035Z,100180.52
2018-02-03T09:18:28.605Z,100175.95
2018-02-03T09:21:03.425Z,100174.41
2018-02-03T09:23:38.676Z,100174.77
2018-02-03T09:26:13.798Z,100180.89
2018-02-03T09:28:49.156Z,100189.36
2018-02-03T09:31:23.715Z,100184.58
2018-02-03T09:33:59.024Z,100184.17
2018-02-03T09:36:34.386Z,100187.55
2018-02-03T09:39:09.560Z,100179.66
2018-02-03T09:41:45.550Z,100180.29
2018-02-03T09:44:20.475Z,100187.58
2018-02-03T09:46:55.762Z,100185.92
2018-02-03T09:49:30.792Z,100190.16
2018-02-03T09:52:05.920Z,100179.61
2018-02-03T09:54:41.412Z,100180.45
2018-02-03T09:57:16.263Z,100182.12
2018-02-03T09:59:51.704Z,100182.38
2018-02-03T10:02:26.680Z,100181.51
2018-02-03T10:05:02.112Z,100182.95
2018-02-03T10:07:36.789Z,100186.05
2018-02-03T10:10:12.066Z,100182.58
2018-02-03T10:12:47.451Z,100180.67
2018-02-03T10:15:22.715Z,100183.60
2018-02-03T10:17:57.963Z,100187.28
2018-02-03T10:20:32.611Z,100177.30
2018-02-03T10:23:07.616Z,100178.12
2018-02-03T10:25:42.764Z,100182.47
2018-02-03T10:28:17.783Z,100183.23
2018-02-03T10:30:52.976Z,100188.41
2018-02-03T10:33:28.015Z,100174.71
2018-02-03T10:36:03.247Z,100175.59
2018-02-03T10:38:37.866Z,100182.02
2018-02-03T10:41:12.738Z,100178.08
2018-02-03T10:43:47.932Z,100172.25
2018-02-03T10:46:23.000Z,100176.58
2018-02-03T10:48:57.804Z,100164.62
2018-02-03T10:51:32.779Z,100160.64
2018-02-03T10:54:07.679Z,100162.73
2018-02-03T10:56:42.195Z,100164.51
2018-02-03T10:59:17.682Z,100155.24
2018-02-03T11:01:52.059Z,100153.09
2018-02-03T11:04:27.252Z,100150.42
2018-02-03T11:07:02.336Z,100146.75
2018-02-03T11:09:36.811Z,100150.70
2018-02-03T11:12:12.051Z,100149.00
2018-02-03T11:14:47.042Z,100147.94
2018-02-03T11:17:21.977Z,100146.23
2018-02-03T11:19:57.328Z,100142.92
2018-02-03T11:22:31.968Z,100139.88
2018-02-03T11:25:06.795Z,100151.55
2018-02-03T11:27:42.004Z,100142.23
2018-02-03T11:30:17.140Z,100144.23
2018-02-03T11:32:51.563Z,100142.16
2018-02-03T11:35:26.914Z,100143.01
2018-02-03T11:38:02.050Z,100140.83
2018-02-03T11:40:37.122Z,100132.77
2018-02-03T11:43:12.214Z,100139.31
2018-02-03T11:45:47.277Z,100138.81
2018-02-03T11:48:22.243Z,100129.80
2018-02-03T11:50:57.955Z,100138.60
2018-02-03T11:53:32.878Z,100133.23
2018-02-03T11:56:07.937Z,100135.36
2018-02-03T11:58:43.059Z,100140.56
2018-02-03T12:01:17.646Z,100139.73
2018-02-03T12:03:52.376Z,100139.50
2018-02-03T12:06:27.075Z,100141.91
2018-02-03T12:09:02.263Z,100142.48
2018-02-03T12:11:37.828Z,100133.08
2018-02-03T12:14:13.195Z,100136.80
2018-02-03T12:16:48.513Z,100127.69
2018-02-03T12:19:23.066Z,100137.38
2018-02-03T12:21:58.296Z,100131.91
2018-02-03T12:24:33.830Z,100129.59
2018-02-03T12:27:09.171Z,100126.98
2018-02-03T12:29:44.374Z,100128.60
2018-02-03T12:32:19.119Z,100130.56
2018-02-03T12:34:54.320Z,100129.38
2018-02-03T12:37:29.012Z,100131.84
2018-02-03T12:40:03.752Z,100129.19
2018-02-03T12:42:39.987Z,100129.09
2018-02-03T12:45:14.516Z,100123.22
2018-02-03T12:47:50.258Z,100125.23
2018-02-03T12:50:25.196Z,100121.25
2018-02-03T12:53:00.589Z,100127.45
2018-02-03T12:55:35.160Z,100129.89
2018-02-03T12:58:09.413Z,100126.53
2018-02-03T13:00:44.075Z,100128.15
2018-02-03T13:03:19.256Z,100111.95
2018-02-03T13:05:54.627Z,100116.20
2018-02-03T13:08:29.730Z,100116.30
2018-02-03T13:11:04.463Z,100121.69
2018-02-03T13:13:39.738Z,100119.20
2018-02-03T13:16:15.042Z,100111.39
2018-02-03T13:18:50.488Z,100110.91
2018-02-03T13:21:26.124Z,100105.74
2018-02-03T13:24:01.465Z,100105.31
2018-02-03T13:26:36.642Z,100103.91
2018-02-03T13:29:12.155Z,100107.83
2018-02-03T13:31:47.406Z,100111.22
2018-02-03T13:34:22.380Z,100108.39
2018-02-03T13:36:57.475Z,100106.13
2018-02-03T13:39:32.632Z,100096.88
2018-02-03T13:42:07.706Z,100101.28
2018-02-03T13:44:42.259Z,100102.61
2018-02-03T13:47:16.670Z,100074.69
2018-02-03T13:49:51.335Z,100101.36
2018-02-03T13:52:26.370Z,100117.27
2018-02-03T13:55:01.591Z,100099.78
2018-02-03T13:57:36.760Z,100108.66
2018-02-03T14:00:12.158Z,100104.36
2018-02-03T14:02:46.891Z,100109.77
2018-02-03T14:05:22.338Z,100109.53
2018-02-03T14:07:57.230Z,100107.11
2018-02-03T14:10:32.278Z,100114.98
2018-02-03T14:13:07.314Z,100111.27
2018-02-03T14:15:42.438Z,100108.80
2018-02-03T14:18:17.755Z,100119.94
2018-02-03T14:20:52.703Z,100106.58
2018-02-03T14:23:28.122Z,100112.64
2018-02-03T14:26:08.486Z,100107.97
2018-02-03T14:28:43.553Z,100113.78
2018-02-03T14:31:19.002Z,100116.66
2018-02-03T14:33:54.288Z,100109.98
2018-02-03T14:36:29.306Z,100122.25
2018-02-03T14:39:03.263Z,100117.56
2018-02-03T14:41:37.909Z,100122.20
2018-02-03T14:44:12.699Z,100126.84
2018-02-03T14:46:47.746Z,100118.09
2018-02-03T14:49:22.759Z,100138.18
2018-02-03T14:51:57.859Z,100141.52
2018-02-03T14:54:32.583Z,100136.35
2018-02-03T14:57:08.321Z,100132.80
2018-02-03T14:59:43.519Z,100148.23
2018-02-03T15:02:18.187Z,100152.94
2018-02-03T15:04:53.586Z,100132.18
2018-02-03T15:07:28.674Z,100150.34
2018-02-03T15:10:03.640Z,100144.09
2018-02-03T15:12:38.510Z,100143.80
2018-02-03T15:15:13.239Z,100150.39
2018-02-03T15:17:48.743Z,100150.64
2018-02-03T15:20:23.864Z,100156.73
2018-02-03T15:22:59.015Z,100150.97
2018-02-03T15:25:34.521Z,100153.28
2018-02-03T15:28:09.526Z,100146.70
2018-02-03T15:30:44.106Z,100157.52
2018-02-03T15:33:18.507Z,100151.71
2018-02-03T15:35:53.738Z,100157.56
2018-02-03T15:38:28.851Z,100153.34
2018-02-03T15:41:03.776Z,100141.72
2018-02-03T15:43:38.646Z,100152.89
2018-02-03T15:46:13.817Z,100153.43
2018-02-03T15:48:48.848Z,100155.24
2018-02-03T15:51:23.640Z,100159.52
2018-02-03T15:53:57.823Z,100165.66
2018-02-03T15:56:32.630Z,100163.59
2018-02-03T15:59:08.256Z,100166.38
2018-02-03T16:01:43.191Z,100170.98
2018-02-03T16:04:18.263Z,100170.41
2018-02-03T16:06:53.288Z,100181.52
2018-02-03T16:09:31.790Z,100175.31
2018-02-03T16:12:07.630Z,100172.87
2018-02-03T16:14:42.831Z,100163.37
2018-02-03T16:17:18.134Z,100174.05
2018-02-03T16:19:52.491Z,100180.87
2018-02-03T16:22:27.696Z,100185.66
2018-02-03T16:25:02.935Z,100180.96
2018-02-03T16:27:37.982Z,100185.71
2018-02-03T16:30:12.143Z,100193.53
2018-02-03T16:32:46.987Z,100194.42
2018-02-03T16:35:21.859Z,100191.83
2018-02-03T16:37:57.028Z,100201.16
2018-02-03T16:40:32.223Z,100199.48
2018-02-03T16:43:06.939Z,100207.89
2018-02-03T16:45:41.887Z,100206.75
2018-02-03T16:48:17.182Z,100206.70
2018-02-03T16:50:52.594Z,100204.81
2018-02-03T16:53:27.839Z,100207.06
2018-02-03T16:56:02.751Z,100210.02
2018-02-03T16:58:37.643Z,100206.56
2018-02-03T17:01:12.643Z,100217.30
2018-02-03T17:03:47.653Z,100221.59
2018-02-03T17:06:22.552Z,100226.31
2018-02-03T17:08:57.152Z,100230.50
2018-02-03T17:11:32.395Z,100242.50
2018-02-03T17:14:07.873Z,100246.48
2018-02-03T17:16:43.006Z,100246.04
2018-02-03T17:19:18.796Z,100244.63
2018-02-03T17:21:54.000Z,100253.87
2018-02-03T17:24:28.662Z,100252.44
2018-02-03T17:27:04.152Z,100254.57
2018-02-03T17:29:38.914Z,100255.02
2018-02-03T17:32:13.903Z,100260.72
2018-02-03T17:34:48.294Z,100262.00
2018-02-03T17:37:28.351Z,100271.15
2018-02-03T17:40:02.976Z,100268.58
2018-02-03T17:42:37.775Z,100264.16
2018-02-03T17:45:18.042Z,100265.67
2018-02-03T17:47:52.978Z,100273.44
2018-02-03T17:50:27.690Z,100268.40
2018-02-03T17:53:02.046Z,100277.34
2018-02-03T17:55:42.631Z,100274.69
2018-02-03T17:58:17.111Z,100283.31
2018-02-03T18:00:51.944Z,100287.13
2018-02-03T18:03:26.785Z,100289.34
2018-02-03T18:06:02.033Z,100293.98
2018-02-03T18:08:36.862Z,100292.08
2018-02-03T18:11:11.982Z,100292.91
2018-02-03T18:13:47.216Z,100288.89
2018-02-03T18:16:27.215Z,100295.03
2018-02-03T18:19:02.343Z,100294.59
2018-02-03T18:21:37.162Z,100292.42
2018-02-03T18:24:12.735Z,100297.69
2018-02-03T18:26:48.191Z,100297.55
2018-02-03T18:29:23.124Z,100302.13
2018-02-03T18:31:58.471Z,100302.20
2018-02-03T18:34:33.859Z,100308.05
2018-02-03T18:37:09.080Z,100308.00
2018-02-03T18:39:44.347Z,100312.25
2018-02-03T18:42:19.387Z,100310.08
2018-02-03T18:44:54.389Z,100315.21
2018-02-03T18:47:29.861Z,100325.30
2018-02-03T18:50:04.964Z,100325.95
2018-02-03T18:52:39.483Z,100326.35
2018-02-03T18:55:14.107Z,100321.93
2018-02-03T18:57:49.307Z,100334.27
2018-02-03T19:00:24.347Z,100329.14
2018-02-03T19:02:59.483Z,100331.70
2018-02-03T19:05:34.307Z,100333.87
2018-02-03T19:08:09.394Z,100339.59
2018-02-03T19:10:44.508Z,100336.27
2018-02-03T19:13:20.134Z,100337.11
2018-02-03T19:15:55.386Z,100339.11
2018-02-03T19:18:30.299Z,100349.15
2018-02-03T19:21:05.308Z,100345.44
2018-02-03T19:23:40.102Z,100350.80
2018-02-03T19:26:15.398Z,100354.38
2018-02-03T19:28:50.340Z,100352.65
2018-02-03T19:31:25.184Z,100356.23
2018-02-03T19:34:00.398Z,100353.97
2018-02-03T19:36:35.208Z,100355.66
2018-02-03T19:39:10.072Z,100361.81
2018-02-03T19:41:45.291Z,100361.32
2018-02-03T19:44:20.422Z,100357.20
2018-02-03T19:46:55.435Z,100366.81
2018-02-03T19:49:30.103Z,100372.82
2018-02-03T19:52:05.314Z,100377.55
2018-02-03T19:54:40.266Z,100383.00
2018-02-03T19:57:15.244Z,100381.53
2018-02-03T19:59:50.482Z,100379.32
2018-02-03T20:02:25.230Z,100389.77
2018-02-03T20:05:00.479Z,100384.86
2018-02-03T20:07:35.550Z,100393.30
2018-02-03T20:10:10.936Z,100394.28
2018-02-03T20:12:45.329Z,100403.05
2018-02-03T20:15:20.218Z,100404.67
2018-02-03T20:17:55.308Z,100408.35
2018-02-03T20:20:29.772Z,100417.60
2018-02-03T20:23:04.174Z,100408.70
2018-02-03T20:25:38.707Z,100415.83
2018-02-03T20:28:14.222Z,100420.88
2018-02-03T20:30:49.405Z,100414.10
2018-02-03T20:33:24.503Z,100420.52
2018-02-03T20:35:59.562Z,100421.45
2018-02-03T20:38:34.864Z,100421.94
2018-02-03T20:41:10.351Z,100420.52
2018-02-03T20:43:45.475Z,100423.31
2018-02-03T20:46:20.604Z,100429.33
2018-02-03T20:48:55.795Z,100429.72
2018-02-03T20:51:30.471Z,100433.44
2018-02-03T20:54:05.026Z,100439.78
2018-02-03T20:56:39.334Z,100438.94
2018-02-03T20:59:14.659Z,100447.39
2018-02-03T21:01:49.309Z,100450.27
2018-02-03T21:04:24.218Z,100450.48
2018-02-03T21:06:59.144Z,100451.00
2018-02-03T21:09:34.230Z,100455.43
2018-02-03T21:12:09.367Z,100459.36
2018-02-03T21:14:44.600Z,100459.77
2018-02-03T21:17:19.414Z,100461.89
2018-02-03T21:19:54.639Z,100474.77
2018-02-03T21:22:29.564Z,100480.25
2018-02-03T21:25:04.401Z,100481.58
2018-02-03T21:27:39.767Z,100485.16
2018-02-03T21:30:14.239Z,100483.03
2018-02-03T21:32:49.544Z,100494.53
2018-02-03T21:35:24.440Z,100502.69
2018-02-03T21:37:59.855Z,100508.53
2018-02-03T21:40:34.943Z,100517.71
2018-02-03T21:43:10.378Z,100515.17
2018-02-03T21:45:45.697Z,100520.17
2018-02-03T21:48:20.945Z,100520.82
2018-02-03T21:50:55.984Z,100524.84
2018-02-03T21:53:30.627Z,100521.66
2018-02-03T21:56:05.858Z,100528.53
2018-02-03T21:58:40.810Z,100541.20
2018-02-03T22:01:16.034Z,100542.70
2018-02-03T22:03:50.742Z,100548.21
2018-02-03T22:06:25.867Z,100552.92
2018-02-03T22:09:01.085Z,100558.30
2018-02-03T22:11:35.660Z,100558.55
2018-02-03T22:14:10.718Z,100560.39
2018-02-03T22:16:46.059Z,100565.46
2018-02-03T22:19:21.069Z,100577.31
2018-02-03T22:21:55.723Z,100575.78
2018-02-03T22:24:31.012Z,100586.22
2018-02-03T22:27:05.629Z,100583.80
2018-02-03T22:29:41.019Z,100585.00
2018-02-03T22:32:16.659Z,100585.30
2018-02-03T22:34:51.771Z,100589.67
2018-02-03T22:37:27.013Z,100587.50
2018-02-03T22:40:02.587Z,100596.53
2018-02-03T22:42:37.653Z,100600.92
2018-02-03T22:45:12.477Z,100603.37
2018-02-03T22:47:47.938Z,100602.42
2018-02-03T22:50:22.414Z,100609.01
2018-02-03T22:52:57.756Z,100608.12
2018-02-03T22:55:32.993Z,100599.36
2018-02-03T22:58:08.187Z,100609.27
2018-02-03T23:03:40.673Z,100608.78
2018-02-03T23:06:15.996Z,100616.14
2018-02-03T23:08:51.803Z,100613.08
2018-02-03T23:11:27.126Z,100619.94
2018-02-03T23:14:02.121Z,100618.61
2018-02-03T23:16:37.701Z,100625.72
2018-02-03T23:19:13.175Z,100631.91
2018-02-03T23:21:48.137Z,100645.20
2018-02-03T23:24:22.991Z,100648.52
2018-02-03T23:26:58.239Z,100642.25
2018-02-03T23:29:33.766Z,100655.06
2018-02-03T23:32:08.719Z,100652.97
2018-02-03T23:34:43.715Z,100665.38
2018-02-03T23:37:19.089Z,100664.45
2018-02-03T23:39:54.750Z,100663.17
2018-02-03T23:42:29.868Z,100673.70
2018-02-03T23:45:05.082Z,100677.16
2018-02-03T23:47:39.856Z,100680.88
2018-02-03T23:50:14.830Z,100671.45
2018-02-03T23:52:50.031Z,100688.10
2018-02-03T23:55:24.746Z,100688.06
2018-02-03T23:57:59.975Z,100687.84
